createdAt,value
2022-09-07T00:01:07.888Z,39.04
2022-09-07T00:03:34.436Z,38.97
2022-09-07T00:06:00.975Z,38.94
2022-09-07T00:08:27.489Z,38.96
2022-09-07T00:10:54.127Z,39.05
2022-09-07T00:13:20.561Z,39.20
2022-09-07T00:15:47.007Z,39.35
2022-09-07T00:18:13.488Z,39.19
2022-09-07T00:20:39.944Z,39.46
2022-09-07T00:23:06.457Z,39.93
2022-09-07T00:25:32.887Z,39.74
2022-09-07T00:27:59.359Z,39.40
2022-09-07T00:30:25.810Z,39.80
2022-09-07T00:32:52.239Z,39.75
2022-09-07T00:35:18.696Z,39.59
2022-09-07T00:37:45.132Z,39.51
2022-09-07T00:40:11.674Z,39.66
2022-09-07T00:42:38.144Z,39.65
2022-09-07T00:45:04.636Z,40.02
2022-09-07T00:47:31.068Z,39.79
2022-09-07T00:49:57.543Z,40.22
2022-09-07T00:52:24.001Z,40.00
2022-09-07T00:54:50.455Z,39.91
2022-09-07T00:57:16.911Z,40.09
2022-09-07T00:59:43.331Z,39.78
2022-09-07T01:02:09.956Z,40.24
2022-09-07T01:04:36.496Z,40.54
2022-09-07T01:07:02.947Z,40.29
2022-09-07T01:09:29.386Z,40.10
2022-09-07T01:11:55.819Z,40.24
2022-09-07T01:14:22.253Z,40.15
2022-09-07T01:16:48.705Z,40.56
2022-09-07T01:19:16.015Z,41.08
2022-09-07T01:21:42.498Z,40.98
2022-09-07T01:24:08.959Z,41.09
2022-09-07T01:26:35.378Z,40.83
2022-09-07T01:29:01.854Z,40.93
2022-09-07T01:31:28.383Z,41.36
2022-09-07T01:33:54.927Z,41.47
2022-09-07T01:36:21.387Z,41.25
2022-09-07T01:38:47.846Z,41.09
2022-09-07T01:41:15.152Z,41.02
2022-09-07T01:43:41.653Z,41.23
2022-09-07T01:46:08.117Z,41.09
2022-09-07T01:48:34.607Z,41.20
2022-09-07T01:51:01.066Z,40.91
2022-09-07T01:53:27.500Z,41.09
2022-09-07T01:55:53.956Z,40.95
2022-09-07T01:58:20.400Z,41.12
2022-09-07T02:00:46.868Z,40.98
2022-09-07T02:03:13.296Z,41.22
2022-09-07T02:05:39.785Z,41.19
2022-09-07T02:08:06.250Z,41.28
2022-09-07T02:10:32.687Z,41.75
2022-09-07T02:12:59.153Z,41.53
2022-09-07T02:15:25.608Z,41.31
2022-09-07T02:17:52.089Z,41.54
2022-09-07T02:20:18.532Z,41.77
2022-09-07T02:22:44.968Z,41.77
2022-09-07T02:25:11.416Z,41.58
2022-09-07T02:27:37.851Z,41.89
2022-09-07T02:30:04.311Z,42.42
2022-09-07T02:32:30.744Z,41.85
2022-09-07T02:34:57.185Z,42.22
2022-09-07T02:37:23.699Z,41.74
2022-09-07T02:39:50.214Z,41.96
2022-09-07T02:42:17.566Z,42.01
2022-09-07T02:44:44.012Z,41.91
2022-09-07T02:47:10.407Z,41.93
2022-09-07T02:49:36.793Z,41.86
2022-09-07T02:52:03.164Z,41.84
2022-09-07T02:54:29.557Z,41.69
2022-09-07T02:56:55.923Z,41.74
2022-09-07T02:59:22.365Z,41.97
2022-09-07T03:01:48.809Z,41.81
2022-09-07T03:04:15.252Z,42.00
2022-09-07T03:06:41.640Z,42.10
2022-09-07T03:09:08.889Z,41.68
2022-09-07T03:11:35.284Z,41.83
2022-09-07T03:14:01.639Z,41.99
2022-09-07T03:16:28.014Z,41.67
2022-09-07T03:18:54.404Z,42.04
2022-09-07T03:21:20.854Z,41.96
2022-09-07T03:23:51.592Z,41.55
2022-09-07T03:26:18.275Z,41.85
2022-09-07T03:28:44.656Z,42.18
2022-09-07T03:31:11.047Z,42.28
2022-09-07T03:33:37.491Z,42.55
2022-09-07T03:36:03.845Z,42.68
2022-09-07T03:38:30.477Z,42.78
2022-09-07T03:40:57.015Z,42.33
2022-09-07T03:43:23.376Z,42.94
2022-09-07T03:45:49.771Z,42.37
2022-09-07T03:48:16.162Z,43.29
2022-09-07T03:50:42.537Z,43.48
2022-09-07T03:53:09.806Z,43.22
2022-09-07T03:55:36.216Z,43.17
2022-09-07T03:58:02.606Z,43.17
2022-09-07T04:00:29.001Z,42.95
2022-09-07T04:02:58.244Z,43.17
2022-09-07T04:05:24.650Z,42.85
2022-09-07T04:07:51.027Z,43.07
2022-09-07T04:10:17.523Z,42.96
2022-09-07T04:12:44.788Z,43.02
2022-09-07T04:15:12.039Z,43.05
2022-09-07T04:17:38.419Z,43.34
2022-09-07T04:20:04.865Z,42.98
2022-09-07T04:22:31.324Z,43.26
2022-09-07T04:24:57.733Z,43.58
2022-09-07T04:27:24.146Z,43.48
2022-09-07T04:29:51.436Z,43.36
2022-09-07T04:32:17.847Z,43.20
2022-09-07T04:34:44.289Z,43.75
2022-09-07T04:37:12.549Z,43.18
2022-09-07T04:39:39.008Z,43.32
2022-09-07T04:42:05.487Z,43.08
2022-09-07T04:44:31.870Z,43.33
2022-09-07T04:46:58.269Z,43.82
2022-09-07T04:49:26.605Z,44.04
2022-09-07T04:51:53.041Z,44.07
2022-09-07T04:54:19.545Z,44.22
2022-09-07T04:56:46.047Z,44.02
2022-09-07T04:59:12.420Z,44.15
2022-09-07T05:01:40.919Z,43.94
2022-09-07T05:04:10.132Z,44.46
2022-09-07T05:06:36.584Z,44.47
2022-09-07T05:09:03.885Z,44.57
2022-09-07T05:11:30.434Z,44.04
2022-09-07T05:13:57.721Z,44.26
2022-09-07T05:16:24.339Z,44.14
2022-09-07T05:18:50.826Z,43.95
2022-09-07T05:21:17.284Z,44.23
2022-09-07T05:23:45.597Z,44.16
2022-09-07T05:26:12.894Z,44.56
2022-09-07T05:28:39.397Z,44.41
2022-09-07T05:31:21.187Z,44.56
2022-09-07T05:36:34.097Z,44.27
2022-09-07T05:39:01.554Z,44.50
2022-09-07T05:41:28.074Z,44.32
2022-09-07T05:46:41.011Z,44.16
2022-09-07T05:49:10.578Z,44.37
2022-09-07T05:51:36.928Z,44.76
2022-09-07T05:54:03.499Z,44.42
2022-09-07T05:56:30.145Z,44.19
2022-09-07T05:58:56.877Z,44.35
2022-09-07T06:01:23.662Z,43.70
2022-09-07T06:03:50.109Z,43.68
2022-09-07T06:06:16.640Z,43.52
2022-09-07T06:08:45.821Z,43.11
2022-09-07T06:11:15.019Z,42.72
2022-09-07T06:13:41.479Z,42.63
2022-09-07T06:16:09.856Z,42.10
2022-09-07T06:18:36.357Z,42.53
2022-09-07T06:21:05.576Z,41.84
2022-09-07T06:23:32.241Z,42.01
2022-09-07T06:26:01.470Z,42.05
2022-09-07T06:28:30.747Z,41.66
2022-09-07T06:30:57.189Z,41.07
2022-09-07T06:33:23.635Z,41.63
2022-09-07T06:35:52.842Z,41.08
2022-09-07T06:38:20.102Z,40.81
2022-09-07T06:40:46.605Z,40.77
2022-09-07T06:43:15.809Z,40.75
2022-09-07T06:45:44.150Z,40.25
2022-09-07T06:48:10.551Z,40.46
2022-09-07T06:50:36.938Z,40.33
2022-09-07T06:55:50.665Z,39.63
2022-09-07T06:58:17.070Z,39.49
2022-09-07T07:00:45.404Z,39.20
2022-09-07T07:03:12.902Z,38.91
2022-09-07T07:05:39.384Z,38.58
2022-09-07T07:08:05.878Z,38.47
2022-09-07T07:10:32.263Z,38.59
2022-09-07T07:12:58.877Z,37.98
2022-09-07T07:15:25.374Z,38.01
2022-09-07T07:17:58.374Z,37.91
2022-09-07T07:20:26.959Z,37.55
2022-09-07T07:22:53.342Z,37.68
2022-09-07T07:25:20.589Z,37.01
2022-09-07T07:27:46.947Z,37.18
2022-09-07T07:30:13.353Z,36.56
2022-09-07T07:32:39.785Z,37.20
2022-09-07T07:35:06.138Z,36.25
2022-09-07T07:37:32.454Z,36.26
2022-09-07T07:42:40.476Z,35.66
2022-09-07T07:47:53.210Z,35.44
2022-09-07T07:50:35.080Z,36.04
2022-09-07T07:55:47.799Z,35.01
2022-09-07T07:58:15.038Z,34.79
2022-09-07T08:00:54.167Z,34.54
2022-09-07T08:03:21.647Z,33.90
2022-09-07T08:05:47.976Z,33.83
2022-09-07T08:08:14.288Z,33.94
2022-09-07T08:10:40.602Z,34.21
2022-09-07T08:13:06.968Z,33.47
2022-09-07T08:15:33.298Z,33.57
2022-09-07T08:17:59.622Z,33.48
2022-09-07T08:20:25.973Z,33.50
2022-09-07T08:22:52.367Z,33.93
2022-09-07T08:25:18.688Z,34.15
2022-09-07T08:27:45.001Z,33.77
2022-09-07T08:30:11.362Z,33.79
2022-09-07T08:32:37.707Z,33.95
2022-09-07T08:35:04.042Z,34.26
2022-09-07T08:37:30.386Z,34.05
2022-09-07T08:39:56.804Z,34.17
2022-09-07T08:42:23.145Z,34.01
2022-09-07T08:44:49.463Z,33.80
2022-09-07T08:47:15.784Z,34.15
2022-09-07T08:49:42.101Z,34.00
2022-09-07T08:52:08.446Z,33.02
2022-09-07T08:54:34.751Z,33.00
2022-09-07T08:59:50.143Z,33.22
2022-09-07T09:02:40.226Z,33.41
2022-09-07T09:05:21.207Z,32.69
2022-09-07T09:07:47.676Z,32.83
2022-09-07T09:10:13.986Z,32.94
2022-09-07T09:12:40.280Z,32.69
2022-09-07T09:15:06.601Z,33.07
2022-09-07T09:17:35.716Z,32.76
2022-09-07T09:20:04.893Z,32.88
2022-09-07T09:22:33.975Z,32.92
2022-09-07T09:25:00.263Z,33.05
2022-09-07T09:27:26.554Z,32.96
2022-09-07T09:29:52.842Z,32.45
2022-09-07T09:32:19.163Z,32.64
2022-09-07T09:34:45.459Z,32.50
2022-09-07T09:37:11.807Z,32.54
2022-09-07T09:39:38.203Z,32.25
2022-09-07T09:42:07.441Z,32.80
2022-09-07T09:44:36.544Z,32.58
2022-09-07T09:49:54.734Z,33.00
2022-09-07T09:52:33.807Z,33.00
2022-09-07T09:55:33.255Z,31.83
2022-09-07T10:06:19.102Z,31.82
2022-09-07T10:08:48.238Z,32.35
2022-09-07T10:11:14.547Z,32.18
2022-09-07T10:13:43.637Z,31.89
2022-09-07T10:16:10.067Z,32.21
2022-09-07T10:18:39.255Z,31.87
2022-09-07T10:21:05.575Z,31.85
2022-09-07T10:23:34.668Z,31.84
2022-09-07T10:26:03.785Z,31.69
2022-09-07T10:31:19.352Z,31.47
2022-09-07T10:36:37.625Z,31.30
2022-09-07T10:39:03.944Z,31.63
2022-09-07T10:41:33.040Z,31.58
2022-09-07T10:44:02.832Z,31.48
2022-09-07T10:49:21.119Z,31.23
2022-09-07T10:51:50.247Z,31.15
2022-09-07T10:54:32.228Z,31.24
2022-09-07T10:57:01.669Z,31.16
2022-09-07T11:00:07.531Z,30.96
2022-09-07T11:02:17.148Z,30.83
2022-09-07T11:04:46.238Z,30.58
2022-09-07T11:07:15.495Z,30.43
2022-09-07T11:09:44.951Z,30.69
2022-09-07T11:12:14.059Z,30.97
2022-09-07T11:14:43.197Z,31.19
2022-09-07T11:17:09.530Z,31.04
2022-09-07T11:19:36.969Z,30.84
2022-09-07T11:22:06.720Z,30.50
2022-09-07T11:24:33.004Z,30.54
2022-09-07T11:26:59.318Z,30.69
2022-09-07T11:29:32.685Z,30.56
2022-09-07T11:32:01.910Z,30.68
2022-09-07T11:34:30.996Z,30.83
2022-09-07T11:36:57.321Z,30.86
2022-09-07T11:39:23.682Z,31.31
2022-09-07T11:41:49.974Z,31.50
2022-09-07T11:44:16.331Z,31.12
2022-09-07T11:46:45.544Z,30.51
2022-09-07T11:49:11.946Z,29.96
2022-09-07T11:51:38.273Z,31.00
2022-09-07T11:54:04.697Z,31.13
2022-09-07T11:56:36.207Z,31.74
2022-09-07T11:59:02.860Z,31.38
2022-09-07T12:01:29.204Z,30.52
2022-09-07T12:03:55.646Z,30.51
2022-09-07T12:06:24.903Z,29.97
2022-09-07T12:08:51.192Z,30.14
2022-09-07T12:11:22.607Z,30.13
2022-09-07T12:13:49.588Z,30.49
2022-09-07T12:16:15.970Z,30.53
2022-09-07T12:18:42.294Z,30.54
2022-09-07T12:21:08.663Z,29.90
2022-09-07T12:23:37.840Z,29.21
2022-09-07T12:26:04.178Z,29.93
2022-09-07T12:28:33.394Z,29.63
2022-09-07T12:31:02.620Z,30.07
2022-09-07T12:33:28.991Z,30.53
2022-09-07T12:35:55.291Z,30.29
2022-09-07T12:38:21.590Z,29.97
2022-09-07T12:40:50.763Z,30.57
2022-09-07T12:43:17.066Z,30.76
2022-09-07T12:45:46.291Z,30.65
2022-09-07T12:48:12.677Z,30.74
2022-09-07T12:50:40.226Z,30.42
2022-09-07T12:53:06.863Z,30.34
2022-09-07T12:56:15.610Z,29.59
2022-09-07T12:58:25.058Z,29.33
2022-09-07T13:00:51.351Z,29.86
2022-09-07T13:06:03.967Z,30.31
2022-09-07T13:08:30.306Z,29.81
2022-09-07T13:10:56.622Z,29.78
2022-09-07T13:16:12.103Z,30.29
2022-09-07T13:18:41.269Z,30.32
2022-09-07T13:21:10.373Z,30.64
2022-09-07T13:23:37.681Z,30.90
2022-09-07T13:26:07.064Z,30.09
2022-09-07T13:28:36.179Z,30.43
2022-09-07T13:31:05.439Z,30.56
2022-09-07T13:33:31.953Z,30.12
2022-09-07T13:36:01.224Z,30.27
2022-09-07T13:38:30.338Z,30.14
2022-09-07T13:40:59.425Z,30.22
2022-09-07T13:43:28.581Z,29.53
2022-09-07T13:45:55.023Z,29.53
2022-09-07T13:48:24.173Z,29.78
2022-09-07T13:50:53.264Z,29.42
2022-09-07T13:53:19.590Z,29.68
2022-09-07T13:55:48.724Z,29.67
2022-09-07T13:58:15.110Z,30.12
2022-09-07T14:00:44.201Z,30.34
2022-09-07T14:03:13.310Z,30.29
2022-09-07T14:05:42.405Z,30.47
2022-09-07T14:08:08.702Z,30.36
2022-09-07T14:10:35.018Z,30.29
2022-09-07T14:13:01.341Z,30.40
2022-09-07T14:15:30.423Z,30.04
2022-09-07T14:17:59.498Z,30.15
2022-09-07T14:20:25.799Z,30.63
2022-09-07T14:22:54.928Z,30.38
2022-09-07T14:25:24.088Z,29.86
2022-09-07T14:27:53.195Z,29.88
2022-09-07T14:30:22.274Z,30.30
2022-09-07T14:32:48.621Z,29.84
2022-09-07T14:35:14.913Z,30.38
2022-09-07T14:37:44.031Z,30.57
2022-09-07T14:40:10.349Z,30.49
2022-09-07T14:42:39.524Z,30.31
2022-09-07T14:45:06.636Z,30.30
2022-09-07T14:47:35.832Z,30.43
2022-09-07T14:50:02.137Z,30.57
2022-09-07T14:52:28.469Z,31.28
2022-09-07T14:54:54.795Z,30.96
2022-09-07T14:57:21.120Z,31.32
2022-09-07T14:59:47.460Z,31.52
2022-09-07T15:02:13.807Z,31.28
2022-09-07T15:04:40.275Z,31.36
2022-09-07T15:07:06.609Z,29.13
2022-09-07T15:09:32.990Z,28.74
2022-09-07T15:11:59.299Z,28.36
2022-09-07T15:14:25.611Z,27.84
2022-09-07T15:17:42.594Z,27.17
2022-09-07T15:19:41.071Z,27.51
2022-09-07T15:22:07.403Z,27.07
2022-09-07T15:24:33.740Z,27.25
2022-09-07T15:27:03.371Z,27.15
2022-09-07T15:29:30.437Z,27.94
2022-09-07T15:32:04.322Z,27.50
2022-09-07T15:34:31.527Z,26.60
2022-09-07T15:37:01.292Z,27.20
2022-09-07T15:39:30.701Z,27.17
2022-09-07T15:41:57.701Z,26.60
2022-09-07T15:44:28.450Z,27.27
2022-09-07T15:49:50.073Z,26.93
2022-09-07T15:52:17.624Z,27.29
2022-09-07T15:54:43.993Z,27.04
2022-09-07T15:59:56.803Z,28.82
2022-09-07T16:05:09.526Z,28.94
2022-09-07T16:10:25.086Z,28.79
2022-09-07T16:15:37.869Z,28.96
2022-09-07T16:18:04.445Z,29.27
2022-09-07T16:20:32.226Z,28.94
2022-09-07T16:23:15.148Z,29.08
2022-09-07T16:25:42.063Z,29.32
2022-09-07T16:28:09.525Z,29.23
2022-09-07T16:30:35.872Z,29.59
2022-09-07T16:33:03.111Z,29.94
2022-09-07T16:35:29.533Z,29.73
2022-09-07T16:40:42.157Z,29.92
2022-09-07T16:43:08.856Z,29.89
2022-09-07T16:48:22.642Z,29.75
2022-09-07T16:50:49.006Z,29.79
2022-09-07T16:53:15.313Z,30.15
2022-09-07T16:55:41.634Z,29.16
2022-09-07T17:00:54.303Z,29.46
2022-09-07T17:03:20.656Z,29.03
2022-09-07T17:05:47.154Z,29.14
2022-09-07T17:08:13.536Z,28.71
2022-09-07T17:10:39.868Z,28.68
2022-09-07T17:13:09.292Z,28.80
2022-09-07T17:15:35.912Z,28.80
2022-09-07T17:18:02.213Z,29.02
2022-09-07T17:20:28.551Z,28.72
2022-09-07T17:22:54.880Z,28.18
2022-09-07T17:25:21.213Z,28.40
2022-09-07T17:27:47.497Z,28.48
2022-09-07T17:30:14.680Z,28.50
2022-09-07T17:32:41.029Z,28.39
2022-09-07T17:35:07.422Z,28.79
2022-09-07T17:37:34.660Z,28.50
2022-09-07T17:40:03.416Z,28.82
2022-09-07T17:45:17.889Z,29.12
2022-09-07T17:47:44.214Z,29.55
2022-09-07T17:50:10.514Z,29.81
2022-09-07T17:52:40.310Z,29.46
2022-09-07T17:55:07.563Z,29.66
2022-09-07T17:57:33.884Z,29.85
2022-09-07T18:00:15.589Z,30.98
2022-09-07T18:02:42.109Z,31.68
2022-09-07T18:05:09.355Z,32.25
2022-09-07T18:07:35.701Z,32.09
2022-09-07T18:10:02.050Z,32.43
2022-09-07T18:12:28.395Z,32.46
2022-09-07T18:14:54.738Z,32.31
2022-09-07T18:17:21.078Z,32.58
2022-09-07T18:19:47.444Z,32.72
2022-09-07T18:22:15.212Z,32.43
2022-09-07T18:24:41.689Z,32.45
2022-09-07T18:27:08.039Z,32.83
2022-09-07T18:29:34.741Z,32.39
2022-09-07T18:32:01.308Z,32.84
2022-09-07T18:34:27.805Z,32.53
2022-09-07T18:36:55.169Z,32.56
2022-09-07T18:39:21.727Z,32.53
2022-09-07T18:41:48.130Z,32.84
2022-09-07T18:47:01.002Z,33.17
2022-09-07T18:49:27.462Z,32.88
2022-09-07T18:54:40.437Z,33.61
2022-09-07T18:57:07.096Z,33.32
2022-09-07T18:59:33.600Z,33.38
2022-09-07T19:02:03.978Z,33.14
2022-09-07T19:07:17.299Z,33.32
2022-09-07T19:09:43.635Z,33.20
2022-09-07T19:12:10.159Z,33.32
2022-09-07T19:14:36.642Z,33.71
2022-09-07T19:17:03.017Z,34.34
2022-09-07T19:19:29.368Z,34.37
2022-09-07T19:21:55.691Z,34.37
2022-09-07T19:24:22.902Z,34.57
2022-09-07T19:26:49.223Z,34.63
2022-09-07T19:29:15.578Z,34.77
2022-09-07T19:31:42.052Z,34.95
2022-09-07T19:34:09.313Z,34.73
2022-09-07T19:36:35.731Z,34.70
2022-09-07T19:41:46.024Z,33.97
2022-09-07T19:44:12.397Z,32.41
2022-09-07T19:46:38.788Z,31.39
2022-09-07T19:49:05.199Z,31.55
2022-09-07T19:51:36.646Z,31.73
2022-09-07T19:56:47.092Z,31.83
2022-09-07T19:59:13.435Z,31.84
2022-09-07T20:01:39.775Z,32.07
2022-09-07T20:04:06.234Z,31.87
2022-09-07T20:06:32.670Z,31.79
2022-09-07T20:11:52.821Z,31.67
2022-09-07T20:14:19.240Z,32.00
2022-09-07T20:16:45.603Z,31.27
2022-09-07T20:19:11.981Z,32.08
2022-09-07T20:21:38.327Z,34.52
2022-09-07T20:26:48.556Z,36.09
2022-09-07T20:29:27.235Z,36.10
2022-09-07T20:31:54.518Z,35.58
2022-09-07T20:34:20.876Z,35.34
2022-09-07T20:36:47.192Z,35.96
2022-09-07T20:42:09.364Z,36.07
2022-09-07T20:44:35.712Z,35.97
2022-09-07T20:47:02.130Z,35.98
2022-09-07T20:49:28.522Z,35.80
2022-09-07T20:51:54.857Z,35.93
2022-09-07T20:57:05.171Z,35.46
2022-09-07T20:59:31.597Z,36.05
2022-09-07T21:01:57.955Z,36.13
2022-09-07T21:04:25.183Z,36.27
2022-09-07T21:06:51.538Z,36.15
2022-09-07T21:12:01.808Z,35.90
2022-09-07T21:14:28.111Z,36.35
2022-09-07T21:16:54.513Z,36.19
2022-09-07T21:19:20.857Z,36.29
2022-09-07T21:21:47.175Z,36.20
2022-09-07T21:27:07.618Z,36.77
2022-09-07T21:29:34.036Z,36.40
2022-09-07T21:32:00.367Z,37.12
2022-09-07T21:34:26.676Z,37.36
2022-09-07T21:36:53.008Z,37.31
2022-09-07T21:42:03.246Z,37.88
2022-09-07T21:44:29.597Z,37.59
2022-09-07T21:46:56.060Z,38.04
2022-09-07T21:49:22.472Z,37.80
2022-09-07T21:51:48.786Z,38.70
2022-09-07T21:57:11.010Z,38.19
2022-09-07T21:59:37.423Z,38.10
2022-09-07T22:02:03.821Z,37.58
2022-09-07T22:04:30.270Z,37.79
2022-09-07T22:06:56.587Z,38.53
2022-09-07T22:12:16.679Z,37.63
2022-09-07T22:14:43.064Z,37.59
2022-09-07T22:17:10.266Z,37.89
2022-09-07T22:19:36.581Z,38.45
2022-09-07T22:22:02.920Z,38.03
2022-09-07T22:27:13.397Z,38.00
2022-09-07T22:29:39.718Z,38.71
2022-09-07T22:32:06.115Z,38.34
2022-09-07T22:34:32.449Z,38.55
2022-09-07T22:36:58.787Z,38.54
2022-09-07T22:42:19.757Z,38.47
2022-09-07T22:44:46.103Z,38.91
2022-09-07T22:47:12.427Z,39.48
2022-09-07T22:49:38.771Z,38.79
2022-09-07T22:52:05.127Z,39.57
2022-09-07T22:57:25.425Z,39.07
2022-09-07T22:59:51.790Z,39.21
2022-09-07T23:02:18.132Z,39.37
2022-09-07T23:04:44.586Z,39.07
2022-09-07T23:07:11.882Z,39.40
2022-09-07T23:12:22.065Z,39.79
2022-09-07T23:14:48.384Z,39.64
2022-09-07T23:17:14.735Z,39.29
2022-09-07T23:19:41.059Z,39.69
2022-09-07T23:22:07.435Z,39.75
2022-09-07T23:27:27.750Z,39.39
2022-09-07T23:29:54.080Z,39.26
2022-09-07T23:32:21.275Z,39.27
2022-09-07T23:34:47.707Z,39.79
2022-09-07T23:37:14.916Z,40.38
2022-09-07T23:42:24.995Z,40.22
2022-09-07T23:44:51.341Z,40.56
2022-09-07T23:47:17.666Z,40.26
2022-09-07T23:49:43.987Z,40.07
2022-09-07T23:52:11.194Z,40.16
2022-09-07T23:57:31.192Z,39.87
2022-09-07T23:59:57.590Z,40.33
